Time;durP1;ratioP1;P1;durP2;ratioP2;P2;SDS_P1;SDS_P2;PMS_P1;PMS_P2;Temp;Humidity;BMP_temperature;BMP_pressure;BME280_temperature;BME280_humidity;BME280_pressure;Samples;Min_cycle;Max_cycle;Signal;HPM_P1;HPM_P2
2023/03/19 00:01:14;;;;;;;15.50;2.88;;;;;;;19.75;39.16;100986.38;16123529;19;130366;-58
2023/03/19 00:06:35;;;;;;;12.82;3.10;;;;;;;19.72;39.41;100998.84;16121228;19;130287;-59
2023/03/19 00:11:57;;;;;;;13.38;2.70;;;;;;;19.70;39.20;101001.03;16123307;19;129242;-58
2023/03/19 00:17:19;;;;;;;13.90;3.10;;;;;;;19.65;39.33;101004.56;16120332;19;129628;-60
2023/03/19 00:22:41;;;;;;;16.17;2.97;;;;;;;19.63;39.25;100998.41;16118016;19;131203;-59
2023/03/19 00:28:03;;;;;;;17.90;3.00;;;;;;;19.60;39.19;101001.69;16120262;19;129604;-58
2023/03/19 00:33:25;;;;;;;9.00;2.20;;;;;;;19.57;39.19;100999.41;16119990;19;129525;-58
2023/03/19 00:38:47;;;;;;;7.70;2.55;;;;;;;19.56;39.11;101003.28;16116222;19;129857;-59
2023/03/19 00:44:09;;;;;;;12.40;2.20;;;;;;;19.55;39.05;101000.75;16119968;19;129522;-58
2023/03/19 00:49:31;;;;;;;10.38;2.35;;;;;;;19.52;38.96;100999.31;16116407;19;130674;-58
2023/03/19 00:54:52;;;;;;;9.52;2.30;;;;;;;19.51;39.22;101005.97;16118488;19;130928;-58
2023/03/19 01:00:15;;;;;;;8.93;2.30;;;;;;;19.49;38.96;101010.91;16114750;19;129555;-58
2023/03/19 01:05:40;;;;;;;9.45;2.53;;;;;;;19.48;39.22;101017.56;16107689;19;129759;-58
2023/03/19 01:11:17;;;;;;;18.25;2.42;;;;;;;19.45;39.19;101009.72;16117118;19;131412;-59
2023/03/19 01:16:39;;;;;;;12.32;2.20;;;;;;;19.42;39.20;101010.25;16116542;19;130153;-58
2023/03/19 01:22:03;;;;;;;12.23;2.30;;;;;;;19.42;39.13;101019.41;16120528;19;130616;-58
2023/03/19 01:27:25;;;;;;;7.00;2.13;;;;;;;19.45;39.12;101015.28;16115891;19;129548;-58
2023/03/19 01:32:47;;;;;;;9.48;2.47;;;;;;;19.45;39.21;101010.59;16115601;19;129612;-58
2023/03/19 01:38:08;;;;;;;6.07;1.70;;;;;;;19.42;39.30;101013.84;16113865;19;130966;-58
2023/03/19 01:43:31;;;;;;;10.40;2.42;;;;;;;19.42;39.02;101021.34;16115265;19;129501;-58
2023/03/19 01:48:58;;;;;;;11.02;2.20;;;;;;;19.40;38.93;101012.44;16118038;19;133059;-58
2023/03/19 01:54:22;;;;;;;8.13;2.00;;;;;;;19.37;39.32;101020.16;16111990;19;130606;-54
2023/03/19 01:59:49;;;;;;;10.35;2.00;;;;;;;19.34;39.41;101025.38;16115204;19;129247;-58
2023/03/19 02:05:14;;;;;;;6.43;1.45;;;;;;;19.30;39.17;101022.25;16115025;19;129542;-61
2023/03/19 02:10:36;;;;;;;6.82;1.60;;;;;;;19.29;39.34;101017.78;16115332;19;129620;-57
2023/03/19 02:15:58;;;;;;;9.52;2.10;;;;;;;19.30;39.38;101030.56;16113447;19;134850;-56
2023/03/19 02:21:20;;;;;;;8.18;1.45;;;;;;;19.28;39.15;101027.19;16112530;19;131574;-57
2023/03/19 02:26:45;;;;;;;6.07;1.30;;;;;;;19.25;39.39;101024.91;16112337;19;130206;-56
2023/03/19 02:32:07;;;;;;;4.05;1.30;;;;;;;19.21;38.94;101021.81;16109320;19;130787;-57
2023/03/19 02:37:29;;;;;;;5.40;1.70;;;;;;;19.21;38.92;101029.25;16117919;19;129247;-57
2023/03/19 02:42:54;;;;;;;6.38;1.35;;;;;;;19.19;38.92;101028.66;16113413;19;130404;-57
2023/03/19 02:48:16;;;;;;;6.35;1.33;;;;;;;19.17;39.24;101031.66;16110134;19;130485;-57
2023/03/19 02:53:37;;;;;;;4.90;1.35;;;;;;;19.16;39.33;101034.69;16112741;19;130039;-58
2023/03/19 02:59:00;;;;;;;7.47;1.35;;;;;;;19.14;39.22;101039.66;16107103;19;131452;-57
2023/03/19 03:04:22;;;;;;;3.72;1.27;;;;;;;19.13;39.12;101029.63;16105846;19;130758;-56
2023/03/19 03:09:43;;;;;;;3.28;1.20;;;;;;;19.08;39.36;101025.66;16108536;19;130253;-55
2023/03/19 03:15:07;;;;;;;4.30;1.23;;;;;;;19.08;39.30;101028.44;16110013;19;129438;-57
2023/03/19 03:20:29;;;;;;;5.43;1.58;;;;;;;19.06;39.30;101025.09;16113203;19;129909;-57
2023/03/19 03:25:51;;;;;;;2.45;1.08;;;;;;;19.06;39.10;101027.88;16125705;19;129758;-57
2023/03/19 03:31:13;;;;;;;4.32;1.17;;;;;;;19.04;38.90;101043.91;16123383;19;130753;-58
2023/03/19 03:36:35;;;;;;;3.45;0.90;;;;;;;19.01;39.15;101038.84;16124302;19;130044;-56
2023/03/19 03:41:57;;;;;;;4.97;1.30;;;;;;;18.99;39.02;101032.69;16124647;19;130005;-57
2023/03/19 03:47:19;;;;;;;3.97;1.20;;;;;;;18.99;39.42;101038.25;16115841;19;130870;-56
2023/03/19 03:52:41;;;;;;;4.40;1.40;;;;;;;18.97;39.11;101034.88;16125145;19;130398;-55
2023/03/19 03:58:03;;;;;;;5.15;1.27;;;;;;;18.95;39.11;101042.63;16120157;19;131019;-59
2023/03/19 04:03:25;;;;;;;2.78;1.00;;;;;;;18.94;39.44;101045.63;16120865;19;129070;-57
2023/03/19 04:08:47;;;;;;;2.50;1.00;;;;;;;;;;16118827;19;129595;-57
2023/03/19 04:14:09;;;;;;;4.55;1.10;;;;;;;18.90;39.03;101045.28;16124988;19;130331;-56
2023/03/19 04:19:31;;;;;;;4.90;1.35;;;;;;;18.90;39.42;101048.03;16119240;19;129243;-57
2023/03/19 04:24:53;;;;;;;2.55;1.10;;;;;;;18.88;38.99;101044.66;16122205;19;131121;-54
2023/03/19 04:30:15;;;;;;;2.92;0.90;;;;;;;18.87;39.28;101051.31;16120323;19;130204;-56
2023/03/19 04:35:37;;;;;;;3.28;0.95;;;;;;;18.86;39.07;101052.38;16119522;19;131302;-57
2023/03/19 04:41:00;;;;;;;2.60;0.90;;;;;;;18.85;39.00;101062.66;16119014;19;130638;-57
2023/03/19 04:46:22;;;;;;;3.05;0.85;;;;;;;18.83;39.48;101075.06;16119023;19;130328;-57
2023/03/19 04:51:44;;;;;;;2.78;0.90;;;;;;;18.81;39.19;101071.69;16116162;19;129457;-58
2023/03/19 04:57:06;;;;;;;4.78;0.98;;;;;;;18.80;39.48;101068.06;16119807;19;129758;-56
2023/03/19 05:02:27;;;;;;;3.40;1.00;;;;;;;18.79;39.39;101084.94;16119852;19;129945;-57
2023/03/19 05:07:49;;;;;;;4.28;1.23;;;;;;;18.77;39.50;101087.94;16120025;19;129280;-57
2023/03/19 05:13:11;;;;;;;1.13;0.70;;;;;;;18.76;39.09;101080.75;16116597;19;130418;-56
2023/03/19 05:18:33;;;;;;;7.82;1.27;;;;;;;18.75;39.04;101087.38;16116607;19;133396;-56
2023/03/19 05:23:56;;;;;;;2.58;0.88;;;;;;;18.73;39.51;101081.22;16116648;19;129933;-57
2023/03/19 05:29:17;;;;;;;2.60;1.00;;;;;;;18.71;39.08;101087.00;16115213;19;129896;-57
2023/03/19 05:34:39;;;;;;;3.33;0.98;;;;;;;18.70;39.60;101098.34;16110379;19;129403;-58
2023/03/19 05:40:01;;;;;;;2.47;0.93;;;;;;;18.69;39.53;101094.72;16115607;19;130829;-57
2023/03/19 05:45:23;;;;;;;1.40;0.75;;;;;;;18.68;39.12;101106.03;16113557;19;130911;-57
2023/03/19 05:50:45;;;;;;;2.83;0.80;;;;;;;18.66;39.25;101114.59;16114256;19;130058;-57
2023/03/19 05:56:07;;;;;;;4.70;1.10;;;;;;;18.64;39.14;101116.78;16115624;19;131000;-58
2023/03/19 06:01:29;;;;;;;4.38;1.10;;;;;;;18.63;39.20;101117.84;16114512;19;128895;-58
2023/03/19 06:06:50;;;;;;;3.33;0.90;;;;;;;18.64;39.17;101121.47;16113311;19;129731;-57
2023/03/19 06:12:12;;;;;;;1.88;0.88;;;;;;;18.61;39.41;101117.25;16111956;19;130804;-58
2023/03/19 06:17:35;;;;;;;3.33;0.82;;;;;;;18.61;39.42;101125.56;16112667;19;130620;-58
2023/03/19 06:22:56;;;;;;;2.47;0.70;;;;;;;18.60;39.30;101129.41;16112236;19;129743;-56
2023/03/19 06:28:18;;;;;;;6.68;0.90;;;;;;;18.57;39.53;101135.47;16113967;19;130216;-57
2023/03/19 06:33:40;;;;;;;4.57;0.80;;;;;;;18.56;39.24;101140.13;16110425;19;129426;-58
2023/03/19 06:39:02;;;;;;;1.75;0.80;;;;;;;18.57;39.51;101158.44;16113201;19;130976;-55
2023/03/19 06:44:24;;;;;;;1.48;0.70;;;;;;;18.61;39.28;101158.81;16110947;19;129349;-56
2023/03/19 06:49:46;;;;;;;1.35;0.77;;;;;;;18.79;39.45;101157.00;16111798;19;129401;-57
2023/03/19 06:55:08;;;;;;;2.72;0.70;;;;;;;19.19;38.97;101159.00;16112593;19;131208;-55
2023/03/19 07:00:30;;;;;;;1.58;0.70;;;;;;;19.65;38.04;101159.97;16126543;19;129439;-56
2023/03/19 07:05:52;;;;;;;6.85;1.00;;;;;;;20.04;37.83;101177.94;16144374;19;129812;-60
2023/03/19 07:11:15;;;;;;;15.15;1.50;;;;;;;20.23;37.13;101184.13;16128615;19;130496;-56
2023/03/19 07:16:37;;;;;;;6.65;2.75;;;;;;;20.22;36.72;101183.25;16125988;19;132328;-57
2023/03/19 07:21:59;;;;;;;11.38;2.90;;;;;;;20.15;36.49;101193.69;16131227;19;130127;-56
2023/03/19 07:27:20;;;;;;;6.70;3.40;;;;;;;20.03;36.50;101199.31;16123476;19;130564;-56
2023/03/19 07:32:42;;;;;;;6.32;3.92;;;;;;;19.93;36.41;101199.94;16120178;19;129267;-57
2023/03/19 07:38:04;;;;;;;6.95;3.78;;;;;;;19.82;36.24;101203.59;16121841;19;130069;-56
2023/03/19 07:43:26;;;;;;;7.32;3.47;;;;;;;19.74;36.47;101206.75;16126418;19;129477;-56
2023/03/19 07:48:48;;;;;;;5.70;2.80;;;;;;;19.83;36.15;101214.47;16120104;19;131262;-56
2023/03/19 07:54:10;;;;;;;3.25;2.53;;;;;;;19.94;36.31;101218.25;16122192;19;129919;-56
2023/03/19 07:59:31;;;;;;;5.45;2.08;;;;;;;20.10;35.94;101222.22;16122257;19;130456;-56
2023/03/19 08:04:54;;;;;;;5.13;2.13;;;;;;;20.25;36.34;101227.22;16124586;19;129669;-56
2023/03/19 08:10:16;;;;;;;4.25;1.70;;;;;;;20.68;35.74;101229.59;16123086;19;129504;-56
2023/03/19 08:15:39;;;;;;;4.80;2.08;;;;;;;22.39;33.72;101216.81;16125164;19;129376;-57
2023/03/19 08:21:01;;;;;;;4.47;1.60;;;;;;;25.47;29.99;101217.09;16125152;19;129087;-56
2023/03/19 08:26:22;;;;;;;4.43;1.42;;;;;;;27.18;27.74;101221.47;16122507;19;130373;-57
2023/03/19 08:31:45;;;;;;;4.22;1.63;;;;;;;27.08;27.13;101228.03;16121643;19;129279;-57
2023/03/19 08:37:06;;;;;;;6.25;1.70;;;;;;;25.29;29.38;101228.91;16122818;19;131230;-57
2023/03/19 08:42:29;;;;;;;11.75;1.80;;;;;;;24.17;30.29;101223.91;16110516;19;129802;-55
2023/03/19 08:47:51;;;;;;;7.18;1.40;;;;;;;23.34;31.98;101219.97;16119965;19;129999;-56
2023/03/19 08:53:13;;;;;;;10.18;1.83;;;;;;;22.74;32.56;101236.88;16115751;19;129853;-56
2023/03/19 08:58:35;;;;;;;15.90;1.75;;;;;;;22.33;33.12;101239.31;16116706;19;130723;-56
2023/03/19 09:03:57;;;;;;;10.23;1.90;;;;;;;21.97;33.51;101240.59;16117126;19;129225;-55
2023/03/19 09:09:21;;;;;;;14.43;2.05;;;;;;;21.72;34.09;101252.28;16117308;19;129531;-56
2023/03/19 09:14:42;;;;;;;6.00;1.50;;;;;;;21.52;34.26;101253.72;16114536;19;129688;-56
2023/03/19 09:20:06;;;;;;;8.38;1.80;;;;;;;21.33;34.40;101266.22;16115014;19;129711;-55
2023/03/19 09:25:28;;;;;;;12.65;1.40;;;;;;;21.19;34.92;101266.56;16115091;19;129606;-55
2023/03/19 09:30:50;;;;;;;8.52;1.63;;;;;;;21.04;35.26;101277.50;16117231;19;130277;-56
2023/03/19 09:36:12;;;;;;;9.43;1.88;;;;;;;20.90;35.43;101269.50;16119074;19;131047;-56
2023/03/19 09:41:58;;;;;;;11.52;1.80;;;;;;;20.84;35.45;101276.03;16117057;19;130629;-56
2023/03/19 09:47:26;;;;;;;;;;;;;;;20.73;35.50;101296.41;16116066;19;129602;-55
2023/03/19 09:52:56;;;;;;;8.93;1.85;;;;;;;20.70;35.91;101296.91;16118229;19;130599;-56
2023/03/19 09:58:26;;;;;;;7.20;1.70;;;;;;;20.56;36.08;101302.78;16118385;19;133398;-55
2023/03/19 10:04:03;;;;;;;4.85;1.23;;;;;;;20.47;35.83;101304.28;16116160;19;129707;-56
2023/03/19 10:09:38;;;;;;;6.93;1.67;;;;;;;20.37;36.44;101301.31;16113343;19;129708;-54
2023/03/19 10:15:27;;;;;;;6.43;1.80;;;;;;;20.33;36.46;101303.75;16109388;19;130275;-57
2023/03/19 10:21:04;;;;;;;7.38;1.63;;;;;;;20.31;36.28;101317.06;16111428;19;130306;-56
2023/03/19 10:26:34;;;;;;;8.93;1.45;;;;;;;20.23;36.38;101314.69;16112678;19;130843;-56
2023/03/19 10:32:04;;;;;;;11.23;2.17;;;;;;;20.17;36.56;101324.84;16122557;19;130968;-56
2023/03/19 10:37:27;;;;;;;11.57;3.90;;;;;;;20.14;36.62;101328.94;16125278;19;130043;-59
2023/03/19 10:43:00;;;;;;;27.75;9.35;;;;;;;20.09;36.95;101331.63;16129205;19;129611;-59
2023/03/19 10:48:24;;;;;;;24.00;10.90;;;;;;;20.11;37.53;101334.16;16131847;19;130530;-57
2023/03/19 10:53:52;;;;;;;19.50;11.23;;;;;;;20.11;37.62;101340.56;16132422;19;130738;-57
2023/03/19 10:59:40;;;;;;;26.65;11.50;;;;;;;20.19;37.82;101338.47;16128438;19;133364;-54
2023/03/19 11:05:22;;;;;;;21.90;10.73;;;;;;;20.32;37.39;101340.13;16127373;19;130855;-51
2023/03/19 11:10:48;;;;;;;23.77;10.68;;;;;;;20.41;37.63;101335.88;16127504;19;129725;-50
2023/03/19 11:16:10;;;;;;;;;;;;;;;20.49;37.54;101337.41;16127252;19;131373;-56
2023/03/19 11:21:31;;;;;;;18.98;10.18;;;;;;;20.58;37.24;101339.50;16125824;19;129375;-54
2023/03/19 11:26:54;;;;;;;19.65;9.38;;;;;;;20.63;37.21;101335.97;16129127;19;130041;-56
2023/03/19 11:32:32;;;;;;;20.00;10.05;;;;;;;20.68;37.23;101338.00;16126685;19;130759;-53
2023/03/19 11:38:01;;;;;;;18.38;10.43;;;;;;;20.68;37.16;101335.22;16124910;19;130806;-54
2023/03/19 11:43:46;;;;;;;19.25;9.85;;;;;;;20.66;37.22;101351.34;16121250;19;130645;-55
2023/03/19 11:49:24;;;;;;;23.10;9.45;;;;;;;20.60;37.21;101356.78;16121239;19;129804;-54
2023/03/19 11:54:59;;;;;;;17.65;9.68;;;;;;;20.57;37.63;101365.63;16121755;19;131692;-54
2023/03/19 12:00:35;;;;;;;25.53;9.17;;;;;;;20.46;37.49;101352.63;16123766;19;130678;-56
2023/03/19 12:06:05;;;;;;;;;;;;;;;20.40;37.83;101359.19;16124016;19;129435;-56
2023/03/19 12:11:46;;;;;;;25.77;9.90;;;;;;;20.42;37.58;101357.84;16122754;19;130356;-57
2023/03/19 12:17:21;;;;;;;26.83;8.27;;;;;;;20.37;37.77;101365.22;16124089;19;129803;-56
2023/03/19 12:23:24;;;;;;;23.25;8.07;;;;;;;20.34;37.73;101362.94;16119993;19;129395;-56
2023/03/19 12:29:18;;;;;;;17.27;7.70;;;;;;;20.28;37.81;101357.31;16119882;19;131379;-57
2023/03/19 12:34:51;;;;;;;20.23;7.75;;;;;;;20.23;37.83;101359.13;16121593;19;130534;-55
2023/03/19 12:40:37;;;;;;;16.63;6.60;;;;;;;20.21;37.78;101359.38;16123783;19;131712;-56
2023/03/19 12:46:13;;;;;;;20.47;7.77;;;;;;;20.17;37.67;101371.22;16119678;19;129859;-56
2023/03/19 12:51:41;;;;;;;16.42;8.10;;;;;;;20.13;38.10;101370.88;16118834;19;129225;-57
2023/03/19 12:57:17;;;;;;;19.80;7.80;;;;;;;20.09;37.88;101370.53;16124080;19;129674;-56
2023/03/19 13:02:50;;;;;;;14.55;6.75;;;;;;;20.06;38.38;101375.72;16115917;19;130211;-56
2023/03/19 13:08:34;;;;;;;16.85;7.03;;;;;;;20.00;38.47;101374.75;16113067;19;131270;-57
2023/03/19 13:14:13;;;;;;;16.60;6.97;;;;;;;19.97;38.64;101383.56;16118255;19;130953;-58
2023/03/19 13:19:49;;;;;;;32.65;7.90;;;;;;;19.96;38.98;101381.88;16110576;19;131657;-56
2023/03/19 13:25:18;;;;;;;22.20;6.78;;;;;;;19.94;39.06;101378.50;16114034;19;130205;-58
2023/03/19 13:30:58;;;;;;;27.70;6.90;;;;;;;19.95;38.99;101381.00;16112186;19;131017;-58
2023/03/19 13:36:20;;;;;;;17.98;5.60;;;;;;;19.94;38.41;101389.59;16112307;19;129494;-59
2023/03/19 13:41:42;;;;;;;21.83;5.60;;;;;;;19.94;38.73;101384.03;16108228;19;129704;-58
2023/03/19 13:47:28;;;;;;;11.95;5.10;;;;;;;19.95;38.59;101389.34;16108775;19;129385;-60
2023/03/19 13:52:55;;;;;;;17.75;4.80;;;;;;;19.91;38.12;101390.06;16111192;19;130950;-59
2023/03/19 14:04:04;;;;;;;10.00;3.60;;;;;;;19.93;38.08;101383.22;16111436;19;130851;-58
2023/03/19 14:09:30;;;;;;;10.40;3.67;;;;;;;19.94;38.31;101387.66;16118251;19;129480;-60
2023/03/19 14:14:57;;;;;;;13.80;4.18;;;;;;;19.96;38.38;101404.91;16120829;19;130937;-64
2023/03/19 14:20:18;;;;;;;13.52;3.65;;;;;;;19.98;38.21;101413.84;16116676;19;130860;-59
2023/03/19 14:26:18;;;;;;;10.90;3.08;;;;;;;20.08;38.34;101417.97;16114759;19;132404;-59
2023/03/19 14:31:42;;;;;;;12.20;3.25;;;;;;;20.19;38.16;101419.03;16114710;19;130530;-60
2023/03/19 14:37:40;;;;;;;9.82;3.00;;;;;;;20.33;38.28;101428.81;16110932;19;131267;-64
2023/03/19 14:43:07;;;;;;;12.07;2.67;;;;;;;20.47;37.66;101426.56;16112576;19;131576;-59
2023/03/19 14:48:54;;;;;;;10.32;2.70;;;;;;;20.65;37.85;101438.59;16111405;19;131187;-61
2023/03/19 14:54:48;;;;;;;5.05;2.05;;;;;;;20.75;37.14;101419.34;16109441;19;129547;-57
2023/03/19 15:00:17;;;;;;;6.05;2.15;;;;;;;20.78;37.31;101438.34;16109130;19;130356;-56
2023/03/19 15:05:38;;;;;;;12.68;2.53;;;;;;;20.71;37.57;101432.91;16107353;19;129615;-57
2023/03/19 15:11:20;;;;;;;6.72;2.28;;;;;;;20.67;37.54;101442.00;16113176;19;130725;-57
2023/03/19 15:16:51;;;;;;;6.80;2.88;;;;;;;20.58;37.35;101442.38;16118351;19;130018;-58
2023/03/19 15:22:18;;;;;;;6.68;2.78;;;;;;;20.54;37.73;101455.09;16125715;19;129819;-58
2023/03/19 15:27:41;;;;;;;11.52;2.85;;;;;;;20.48;37.55;101461.63;16127060;19;131154;-53
2023/03/19 15:33:03;;;;;;;6.07;2.80;;;;;;;20.40;37.48;101459.22;16123382;19;129601;-59
2023/03/19 15:39:03;;;;;;;9.05;3.38;;;;;;;20.38;37.08;101478.06;16123021;19;129504;-55
2023/03/19 15:44:37;;;;;;;7.05;2.83;;;;;;;20.33;37.25;101492.72;16123031;19;130214;-56
2023/03/19 15:50:15;;;;;;;7.30;2.65;;;;;;;20.26;37.16;101508.66;16119967;19;129989;-57
2023/03/19 15:55:37;;;;;;;6.90;2.47;;;;;;;20.18;37.17;101521.00;16124492;19;131298;-58
2023/03/19 16:01:00;;;;;;;5.78;2.67;;;;;;;20.12;37.55;101530.28;16123041;19;129442;-58
2023/03/19 16:06:28;;;;;;;4.68;2.10;;;;;;;20.07;37.10;101532.94;16123164;19;129968;-55
2023/03/19 16:11:50;;;;;;;6.35;2.55;;;;;;;19.99;37.52;101534.13;16122089;19;131086;-56
2023/03/19 16:17:17;;;;;;;3.90;2.03;;;;;;;19.94;37.14;101548.72;16124451;19;129100;-56
2023/03/19 16:22:38;;;;;;;4.65;2.28;;;;;;;19.89;37.33;101547.75;16117625;19;130014;-57
2023/03/19 16:28:00;;;;;;;8.32;2.13;;;;;;;19.84;37.42;101546.56;16116374;19;130784;-58
2023/03/19 16:33:25;;;;;;;9.38;1.95;;;;;;;19.80;37.05;101561.16;16121963;19;129635;-58
2023/03/19 16:39:12;;;;;;;7.43;2.38;;;;;;;19.79;37.36;101571.41;16121261;19;129533;-58
2023/03/19 16:44:38;;;;;;;7.53;2.40;;;;;;;19.76;37.33;101584.91;16122501;19;129520;-58
2023/03/19 16:50:00;;;;;;;4.90;1.95;;;;;;;19.74;37.31;101589.84;16121493;19;130643;-58
2023/03/19 16:55:25;;;;;;;6.60;2.15;;;;;;;19.69;37.03;101598.91;16121757;19;130836;-59
2023/03/19 17:00:47;;;;;;;5.90;2.03;;;;;;;19.64;37.02;101613.50;16120251;19;129711;-58
2023/03/19 17:06:11;;;;;;;7.22;2.45;;;;;;;19.63;36.83;101625.69;16120993;19;129613;-58
2023/03/19 17:11:37;;;;;;;10.40;2.50;;;;;;;19.59;36.68;101624.44;16115424;19;130139;-59
2023/03/19 17:16:59;;;;;;;4.50;2.50;;;;;;;19.56;36.76;101630.50;16119383;19;129159;-59
2023/03/19 17:22:22;;;;;;;4.13;2.20;;;;;;;19.53;36.96;101639.28;16117339;19;129500;-59
2023/03/19 17:27:44;;;;;;;7.95;2.03;;;;;;;19.51;36.73;101644.22;16121016;19;131289;-59
2023/03/19 17:33:27;;;;;;;3.58;1.77;;;;;;;19.48;36.63;101659.41;16117173;19;129892;-58
2023/03/19 17:38:49;;;;;;;3.13;1.38;;;;;;;19.56;36.39;101669.34;16111905;19;130386;-58
2023/03/19 17:44:12;;;;;;;6.38;1.20;;;;;;;19.85;35.88;101686.22;16113720;19;129719;-58
2023/03/19 17:49:34;;;;;;;2.65;1.23;;;;;;;20.22;35.67;101686.09;16115273;19;131497;-59
2023/03/19 17:54:55;;;;;;;1.80;1.02;;;;;;;20.48;35.52;101691.47;16113371;19;131019;-59
2023/03/19 18:00:19;;;;;;;1.48;1.00;;;;;;;20.60;35.35;101698.72;16114044;19;130106;-59
2023/03/19 18:05:45;;;;;;;1.67;1.00;;;;;;;20.64;35.16;101712.97;16107433;19;129460;-60
2023/03/19 18:11:07;;;;;;;2.53;1.13;;;;;;;20.62;34.95;101717.09;16112477;19;130572;-60
2023/03/19 18:16:31;;;;;;;3.80;1.00;;;;;;;20.55;35.11;101731.97;16110473;19;129735;-58
2023/03/19 18:21:53;;;;;;;3.20;1.20;;;;;;;20.48;35.63;101730.38;16114416;19;131104;-58
2023/03/19 18:27:14;;;;;;;5.57;1.00;;;;;;;20.40;35.79;101749.09;16109713;19;129653;-59
2023/03/19 18:32:39;;;;;;;2.80;1.10;;;;;;;20.36;35.63;101769.25;16114674;19;130438;-59
2023/03/19 18:38:01;;;;;;;2.40;1.00;;;;;;;20.28;35.96;101774.09;16112423;19;130041;-59
2023/03/19 18:43:23;;;;;;;3.80;1.00;;;;;;;20.20;35.69;101782.72;16100786;19;131317;-59
2023/03/19 18:48:45;;;;;;;9.90;1.50;;;;;;;20.12;36.28;101783.06;16109518;19;130029;-60
2023/03/19 18:54:09;;;;;;;4.63;1.48;;;;;;;20.10;36.37;101788.88;16125560;19;129742;-59
2023/03/19 18:59:32;;;;;;;14.52;1.10;;;;;;;20.08;36.59;101798.50;16125441;19;130638;-59
2023/03/19 19:04:54;;;;;;;3.38;0.95;;;;;;;20.11;36.99;101803.59;16128234;19;130624;-59
2023/03/19 19:10:16;;;;;;;6.10;1.40;;;;;;;20.14;37.09;101803.16;16127756;19;130596;-59
2023/03/19 19:15:38;;;;;;;12.65;1.63;;;;;;;20.20;36.85;101816.06;16126024;19;130367;-59
2023/03/19 19:21:00;;;;;;;16.98;1.65;;;;;;;20.29;36.62;101816.59;16122022;19;129384;-59
2023/03/19 19:26:28;;;;;;;7.05;1.02;;;;;;;20.37;36.66;101815.41;16128853;19;129657;-61
2023/03/19 19:31:51;;;;;;;6.72;1.33;;;;;;;20.41;36.99;101822.22;16126220;19;130126;-61
2023/03/19 19:37:15;;;;;;;7.38;1.27;;;;;;;20.46;36.97;101830.66;16123002;19;130310;-59
2023/03/19 19:42:37;;;;;;;8.50;1.30;;;;;;;20.49;37.22;101835.75;16120347;19;130877;-60
2023/03/19 19:47:59;;;;;;;7.32;0.95;;;;;;;20.51;36.81;101839.16;16127253;19;129535;-60
2023/03/19 19:53:24;;;;;;;6.75;1.10;;;;;;;20.53;37.29;101837.00;16122296;19;131650;-58
2023/03/19 19:58:48;;;;;;;11.05;1.25;;;;;;;20.53;36.78;101834.22;16110447;19;132152;-60
2023/03/19 20:04:13;;;;;;;20.27;1.57;;;;;;;20.53;36.75;101837.00;16116488;19;129527;-60
2023/03/19 20:09:35;;;;;;;8.07;1.35;;;;;;;20.48;36.84;101836.84;16114392;19;130374;-60
2023/03/19 20:14:58;;;;;;;9.20;0.90;;;;;;;20.44;36.64;101832.84;16118914;19;129790;-59
2023/03/19 20:20:26;;;;;;;3.20;0.70;;;;;;;20.41;37.17;101850.00;16116256;19;129298;-59
2023/03/19 20:25:49;;;;;;;7.57;1.13;;;;;;;20.36;36.98;101853.50;16121094;19;130544;-59
2023/03/19 20:31:28;;;;;;;7.65;1.15;;;;;;;20.35;36.96;101857.34;16119813;19;131153;-59
2023/03/19 20:36:51;;;;;;;7.10;0.90;;;;;;;20.33;37.21;101869.75;16119840;19;130599;-59
2023/03/19 20:42:14;;;;;;;6.15;0.95;;;;;;;20.31;37.27;101877.50;16118147;19;133943;-60
2023/03/19 20:47:36;;;;;;;5.00;0.70;;;;;;;20.31;37.55;101888.63;16113478;19;130381;-60
2023/03/19 20:53:02;;;;;;;6.78;1.20;;;;;;;20.33;37.90;101890.09;16119077;19;133116;-60
2023/03/19 20:58:30;;;;;;;12.82;1.25;;;;;;;20.36;38.17;101891.53;16120399;19;129609;-61
2023/03/19 21:03:55;;;;;;;17.73;1.45;;;;;;;20.39;38.13;101888.28;16122286;19;130018;-61
2023/03/19 21:09:16;;;;;;;9.35;1.33;;;;;;;20.53;38.32;101887.03;16118943;19;131861;-60
2023/03/19 21:14:39;;;;;;;12.43;1.33;;;;;;;20.75;38.58;101878.16;16117611;19;131574;-60
2023/03/19 21:20:01;;;;;;;21.98;1.33;;;;;;;20.93;38.56;101887.50;16119263;19;130273;-55
2023/03/19 21:25:27;;;;;;;20.05;1.85;;;;;;;21.08;38.01;101887.06;16115811;19;131378;-57
2023/03/19 21:30:49;;;;;;;26.25;1.58;;;;;;;21.16;38.11;101882.00;16110026;19;129913;-60
2023/03/19 21:36:12;;;;;;;23.85;2.13;;;;;;;21.18;38.13;101892.88;16110972;19;130370;-59
2023/03/19 21:41:34;;;;;;;17.40;2.10;;;;;;;21.17;37.71;101883.69;16115229;19;131113;-59
2023/03/19 21:46:56;;;;;;;11.35;1.35;;;;;;;21.12;37.62;101891.06;16113582;19;129305;-57
2023/03/19 21:52:20;;;;;;;17.25;1.95;;;;;;;21.04;37.43;101883.94;16116758;19;130916;-57
2023/03/19 21:57:43;;;;;;;11.57;1.58;;;;;;;20.94;37.67;101880.88;16112074;19;129562;-58
2023/03/19 22:03:05;;;;;;;7.97;1.30;;;;;;;20.84;37.58;101882.31;16113715;19;129563;-57
2023/03/19 22:08:27;;;;;;;11.18;1.23;;;;;;;20.77;37.93;101887.13;16115133;19;130258;-58
2023/03/19 22:13:50;;;;;;;6.38;1.08;;;;;;;20.71;37.50;101888.03;16116281;19;131068;-57
2023/03/19 22:19:16;;;;;;;5.35;1.10;;;;;;;20.62;37.85;101881.13;16113566;19;129559;-58
2023/03/19 22:24:38;;;;;;;5.35;0.90;;;;;;;20.51;37.77;101883.63;16116366;19;134016;-57
2023/03/19 22:30:01;;;;;;;6.13;1.10;;;;;;;20.46;38.17;101894.59;16132750;19;130767;-57
2023/03/19 22:35:23;;;;;;;8.85;1.08;;;;;;;20.40;38.22;101893.59;16127861;19;129351;-58
2023/03/19 22:40:48;;;;;;;4.82;0.80;;;;;;;20.35;38.27;101892.63;16125783;19;130774;-57
2023/03/19 22:46:14;;;;;;;6.17;0.83;;;;;;;20.29;38.30;101905.53;16124079;19;130438;-56
2023/03/19 22:51:36;;;;;;;8.63;0.80;;;;;;;20.23;38.30;101904.53;16122146;19;130733;-57
2023/03/19 22:56:58;;;;;;;4.43;0.90;;;;;;;20.18;38.33;101909.94;16123256;19;131376;-57
2023/03/19 23:02:19;;;;;;;4.65;0.70;;;;;;;20.13;38.38;101912.56;16122917;19;129497;-57
2023/03/19 23:07:41;;;;;;;4.47;0.55;;;;;;;20.08;37.96;101927.16;16118165;19;131005;-57
2023/03/19 23:13:03;;;;;;;7.68;1.00;;;;;;;20.04;38.38;101922.31;16124079;19;129636;-58
2023/03/19 23:18:29;;;;;;;4.70;0.60;;;;;;;20.01;37.99;101925.53;16123979;19;129581;-57
2023/03/19 23:23:51;;;;;;;2.95;0.60;;;;;;;19.97;38.08;101933.44;16123964;19;130265;-57
2023/03/19 23:29:20;;;;;;;4.95;0.60;;;;;;;19.94;38.24;101926.41;16125842;19;130101;-57
2023/03/19 23:34:44;;;;;;;3.83;0.57;;;;;;;19.89;38.42;101937.38;16119650;19;130240;-57
2023/03/19 23:40:25;;;;;;;1.23;0.40;;;;;;;19.87;38.64;101945.09;16115614;19;129940;-57
2023/03/19 23:45:48;;;;;;;1.65;0.57;;;;;;;19.82;38.13;101951.34;16123848;19;129605;-57
2023/03/19 23:51:14;;;;;;;2.28;0.73;;;;;;;19.77;38.25;101955.88;16120419;19;130015;-57
2023/03/19 23:56:37;;;;;;;3.45;0.73;;;;;;;19.73;37.94;101957.41;16119167;19;131407;-57
